sensor_id;sensor_type;location;lat;lon;timestamp;temperature;humidity
46926;DHT22;32667;48.248;-1.700;2023-04-24T00:00:56;11.30;67.40
46926;DHT22;32667;48.248;-1.700;2023-04-24T00:03:25;11.30;67.40
46926;DHT22;32667;48.248;-1.700;2023-04-24T00:05:53;11.30;67.50
46926;DHT22;32667;48.248;-1.700;2023-04-24T00:08:19;11.30;67.40
46926;DHT22;32667;48.248;-1.700;2023-04-24T00:10:46;11.30;68.00
46926;DHT22;32667;48.248;-1.700;2023-04-24T00:13:12;11.30;67.40
46926;DHT22;32667;48.248;-1.700;2023-04-24T00:15:38;11.30;67.30
46926;DHT22;32667;48.248;-1.700;2023-04-24T00:18:03;11.40;67.40
46926;DHT22;32667;48.248;-1.700;2023-04-24T00:20:29;11.40;67.40
46926;DHT22;32667;48.248;-1.700;2023-04-24T00:22:57;11.40;67.40
46926;DHT22;32667;48.248;-1.700;2023-04-24T00:25:23;11.30;67.40
46926;DHT22;32667;48.248;-1.700;2023-04-24T00:27:49;11.30;67.40
46926;DHT22;32667;48.248;-1.700;2023-04-24T00:30:15;11.30;68.00
46926;DHT22;32667;48.248;-1.700;2023-04-24T00:32:41;11.30;67.40
46926;DHT22;32667;48.248;-1.700;2023-04-24T00:35:07;11.30;67.40
46926;DHT22;32667;48.248;-1.700;2023-04-24T00:37:33;11.30;67.40
46926;DHT22;32667;48.248;-1.700;2023-04-24T00:39:59;11.30;67.40
46926;DHT22;32667;48.248;-1.700;2023-04-24T00:42:33;11.30;67.40
46926;DHT22;32667;48.248;-1.700;2023-04-24T00:44:59;11.30;67.40
46926;DHT22;32667;48.248;-1.700;2023-04-24T00:47:25;11.30;67.40
46926;DHT22;32667;48.248;-1.700;2023-04-24T00:49:52;11.30;67.40
46926;DHT22;32667;48.248;-1.700;2023-04-24T00:52:18;11.30;67.50
46926;DHT22;32667;48.248;-1.700;2023-04-24T00:54:44;11.20;67.50
46926;DHT22;32667;48.248;-1.700;2023-04-24T00:57:14;11.20;67.50
46926;DHT22;32667;48.248;-1.700;2023-04-24T00:59:43;11.20;67.40
46926;DHT22;32667;48.248;-1.700;2023-04-24T01:02:13;11.20;67.40
46926;DHT22;32667;48.248;-1.700;2023-04-24T01:04:41;11.20;67.40
46926;DHT22;32667;48.248;-1.700;2023-04-24T01:07:07;11.20;67.40
46926;DHT22;32667;48.248;-1.700;2023-04-24T01:09:38;11.20;67.40
46926;DHT22;32667;48.248;-1.700;2023-04-24T01:12:07;11.20;67.40
46926;DHT22;32667;48.248;-1.700;2023-04-24T01:14:34;11.20;67.40
46926;DHT22;32667;48.248;-1.700;2023-04-24T01:17:03;11.20;67.40
46926;DHT22;32667;48.248;-1.700;2023-04-24T01:19:29;11.20;68.10
46926;DHT22;32667;48.248;-1.700;2023-04-24T01:21:58;11.20;67.50
46926;DHT22;32667;48.248;-1.700;2023-04-24T01:24:30;11.20;67.50
46926;DHT22;32667;48.248;-1.700;2023-04-24T01:26:58;11.20;67.50
46926;DHT22;32667;48.248;-1.700;2023-04-24T01:29:24;11.20;67.50
46926;DHT22;32667;48.248;-1.700;2023-04-24T01:31:50;11.20;67.40
46926;DHT22;32667;48.248;-1.700;2023-04-24T01:34:16;11.20;67.40
46926;DHT22;32667;48.248;-1.700;2023-04-24T01:36:43;11.20;67.50
46926;DHT22;32667;48.248;-1.700;2023-04-24T01:39:13;11.20;67.40
46926;DHT22;32667;48.248;-1.700;2023-04-24T01:41:39;11.20;67.50
46926;DHT22;32667;48.248;-1.700;2023-04-24T01:44:05;11.20;67.40
46926;DHT22;32667;48.248;-1.700;2023-04-24T01:46:30;11.20;67.40
46926;DHT22;32667;48.248;-1.700;2023-04-24T01:48:59;11.20;67.40
46926;DHT22;32667;48.248;-1.700;2023-04-24T01:51:25;11.20;67.40
46926;DHT22;32667;48.248;-1.700;2023-04-24T01:53:54;11.20;67.40
46926;DHT22;32667;48.248;-1.700;2023-04-24T01:56:21;11.10;67.40
46926;DHT22;32667;48.248;-1.700;2023-04-24T01:58:50;11.10;67.50
46926;DHT22;32667;48.248;-1.700;2023-04-24T02:01:19;11.10;67.60
46926;DHT22;32667;48.248;-1.700;2023-04-24T02:03:45;11.10;67.50
46926;DHT22;32667;48.248;-1.700;2023-04-24T02:06:11;11.10;67.50
46926;DHT22;32667;48.248;-1.700;2023-04-24T02:08:37;11.10;67.50
46926;DHT22;32667;48.248;-1.700;2023-04-24T02:11:03;11.10;67.50
46926;DHT22;32667;48.248;-1.700;2023-04-24T02:13:32;11.10;67.50
46926;DHT22;32667;48.248;-1.700;2023-04-24T02:16:01;11.10;67.60
46926;DHT22;32667;48.248;-1.700;2023-04-24T02:18:26;11.10;67.50
46926;DHT22;32667;48.248;-1.700;2023-04-24T02:20:52;11.10;67.60
46926;DHT22;32667;48.248;-1.700;2023-04-24T02:23:19;11.10;67.60
46926;DHT22;32667;48.248;-1.700;2023-04-24T02:25:47;11.10;67.50
46926;DHT22;32667;48.248;-1.700;2023-04-24T02:28:13;11.10;67.50
46926;DHT22;32667;48.248;-1.700;2023-04-24T02:30:39;11.10;67.40
46926;DHT22;32667;48.248;-1.700;2023-04-24T02:33:04;11.10;67.40
46926;DHT22;32667;48.248;-1.700;2023-04-24T02:35:33;11.10;67.40
46926;DHT22;32667;48.248;-1.700;2023-04-24T02:37:58;11.10;67.50
46926;DHT22;32667;48.248;-1.700;2023-04-24T02:40:24;11.10;67.50
46926;DHT22;32667;48.248;-1.700;2023-04-24T02:42:53;11.10;67.50
46926;DHT22;32667;48.248;-1.700;2023-04-24T02:45:18;11.10;67.50
46926;DHT22;32667;48.248;-1.700;2023-04-24T02:47:44;11.10;67.50
46926;DHT22;32667;48.248;-1.700;2023-04-24T02:50:10;11.00;67.60
46926;DHT22;32667;48.248;-1.700;2023-04-24T02:52:36;11.00;67.60
46926;DHT22;32667;48.248;-1.700;2023-04-24T02:55:02;11.00;67.70
46926;DHT22;32667;48.248;-1.700;2023-04-24T02:57:28;10.90;67.70
46926;DHT22;32667;48.248;-1.700;2023-04-24T02:59:56;10.90;67.80
46926;DHT22;32667;48.248;-1.700;2023-04-24T03:02:22;10.90;67.80
46926;DHT22;32667;48.248;-1.700;2023-04-24T03:04:47;10.90;67.70
46926;DHT22;32667;48.248;-1.700;2023-04-24T03:07:14;10.90;67.70
46926;DHT22;32667;48.248;-1.700;2023-04-24T03:09:42;10.90;67.70
46926;DHT22;32667;48.248;-1.700;2023-04-24T03:12:10;10.90;68.40
46926;DHT22;32667;48.248;-1.700;2023-04-24T03:14:38;10.90;67.70
46926;DHT22;32667;48.248;-1.700;2023-04-24T03:17:04;10.90;67.70
46926;DHT22;32667;48.248;-1.700;2023-04-24T03:19:32;10.90;67.70
46926;DHT22;32667;48.248;-1.700;2023-04-24T03:21:58;10.80;67.70
46926;DHT22;32667;48.248;-1.700;2023-04-24T03:24:24;10.90;67.90
46926;DHT22;32667;48.248;-1.700;2023-04-24T03:26:50;10.80;67.80
46926;DHT22;32667;48.248;-1.700;2023-04-24T03:29:15;10.80;67.80
46926;DHT22;32667;48.248;-1.700;2023-04-24T03:31:41;10.80;67.70
46926;DHT22;32667;48.248;-1.700;2023-04-24T03:34:07;10.80;67.70
46926;DHT22;32667;48.248;-1.700;2023-04-24T03:36:33;10.80;67.80
46926;DHT22;32667;48.248;-1.700;2023-04-24T03:38:59;10.80;67.80
46926;DHT22;32667;48.248;-1.700;2023-04-24T03:41:24;10.80;67.80
46926;DHT22;32667;48.248;-1.700;2023-04-24T03:43:50;10.70;67.80
46926;DHT22;32667;48.248;-1.700;2023-04-24T03:46:16;10.60;67.80
46926;DHT22;32667;48.248;-1.700;2023-04-24T03:48:42;10.60;67.90
46926;DHT22;32667;48.248;-1.700;2023-04-24T03:51:08;10.50;68.00
46926;DHT22;32667;48.248;-1.700;2023-04-24T03:53:33;10.50;68.00
46926;DHT22;32667;48.248;-1.700;2023-04-24T03:55:59;10.50;68.00
46926;DHT22;32667;48.248;-1.700;2023-04-24T03:58:25;10.50;68.00
46926;DHT22;32667;48.248;-1.700;2023-04-24T04:00:51;10.50;68.00
46926;DHT22;32667;48.248;-1.700;2023-04-24T04:03:17;10.50;68.00
46926;DHT22;32667;48.248;-1.700;2023-04-24T04:05:43;10.50;67.90
46926;DHT22;32667;48.248;-1.700;2023-04-24T04:08:08;10.50;67.90
46926;DHT22;32667;48.248;-1.700;2023-04-24T04:10:34;10.50;68.50
46926;DHT22;32667;48.248;-1.700;2023-04-24T04:13:00;10.50;67.90
46926;DHT22;32667;48.248;-1.700;2023-04-24T04:15:25;10.50;67.90
46926;DHT22;32667;48.248;-1.700;2023-04-24T04:17:51;10.50;67.80
46926;DHT22;32667;48.248;-1.700;2023-04-24T04:20:17;10.50;67.80
46926;DHT22;32667;48.248;-1.700;2023-04-24T04:22:43;10.50;67.80
46926;DHT22;32667;48.248;-1.700;2023-04-24T04:25:09;10.50;67.70
46926;DHT22;32667;48.248;-1.700;2023-04-24T04:27:34;10.50;67.70
46926;DHT22;32667;48.248;-1.700;2023-04-24T04:30:04;10.60;67.80
46926;DHT22;32667;48.248;-1.700;2023-04-24T04:32:33;10.60;67.70
46926;DHT22;32667;48.248;-1.700;2023-04-24T04:35:02;10.50;67.60
46926;DHT22;32667;48.248;-1.700;2023-04-24T04:37:29;10.50;67.80
46926;DHT22;32667;48.248;-1.700;2023-04-24T04:39:59;10.50;67.70
46926;DHT22;32667;48.248;-1.700;2023-04-24T04:42:26;10.50;67.70
46926;DHT22;32667;48.248;-1.700;2023-04-24T04:44:52;10.60;67.70
46926;DHT22;32667;48.248;-1.700;2023-04-24T04:47:21;10.60;67.70
46926;DHT22;32667;48.248;-1.700;2023-04-24T04:49:50;10.60;67.70
46926;DHT22;32667;48.248;-1.700;2023-04-24T04:52:19;10.60;67.70
46926;DHT22;32667;48.248;-1.700;2023-04-24T04:54:45;10.50;67.70
46926;DHT22;32667;48.248;-1.700;2023-04-24T04:57:11;10.50;67.60
46926;DHT22;32667;48.248;-1.700;2023-04-24T04:59:37;10.60;67.70
46926;DHT22;32667;48.248;-1.700;2023-04-24T05:02:03;10.60;67.70
46926;DHT22;32667;48.248;-1.700;2023-04-24T05:04:29;10.50;67.60
46926;DHT22;32667;48.248;-1.700;2023-04-24T05:06:55;10.50;67.70
46926;DHT22;32667;48.248;-1.700;2023-04-24T05:09:22;10.60;67.80
46926;DHT22;32667;48.248;-1.700;2023-04-24T05:11:47;10.60;67.70
46926;DHT22;32667;48.248;-1.700;2023-04-24T05:14:13;10.60;67.70
46926;DHT22;32667;48.248;-1.700;2023-04-24T05:16:39;10.50;67.60
46926;DHT22;32667;48.248;-1.700;2023-04-24T05:19:06;10.50;67.60
46926;DHT22;32667;48.248;-1.700;2023-04-24T05:21:31;10.50;67.70
46926;DHT22;32667;48.248;-1.700;2023-04-24T05:23:57;10.50;67.80
46926;DHT22;32667;48.248;-1.700;2023-04-24T05:26:23;10.50;67.80
46926;DHT22;32667;48.248;-1.700;2023-04-24T05:28:49;10.50;67.70
46926;DHT22;32667;48.248;-1.700;2023-04-24T05:31:15;10.50;67.70
46926;DHT22;32667;48.248;-1.700;2023-04-24T05:33:43;10.50;67.70
46926;DHT22;32667;48.248;-1.700;2023-04-24T05:36:08;10.60;67.70
46926;DHT22;32667;48.248;-1.700;2023-04-24T05:38:34;10.60;67.60
46926;DHT22;32667;48.248;-1.700;2023-04-24T05:41:00;10.60;67.60
46926;DHT22;32667;48.248;-1.700;2023-04-24T05:43:26;10.60;67.60
46926;DHT22;32667;48.248;-1.700;2023-04-24T05:45:52;10.60;67.60
46926;DHT22;32667;48.248;-1.700;2023-04-24T05:48:19;10.60;67.60
46926;DHT22;32667;48.248;-1.700;2023-04-24T05:50:45;10.60;67.70
46926;DHT22;32667;48.248;-1.700;2023-04-24T05:53:12;10.60;67.60
46926;DHT22;32667;48.248;-1.700;2023-04-24T05:55:38;10.60;67.60
46926;DHT22;32667;48.248;-1.700;2023-04-24T05:58:04;10.60;67.60
46926;DHT22;32667;48.248;-1.700;2023-04-24T06:00:30;10.60;67.60
46926;DHT22;32667;48.248;-1.700;2023-04-24T06:02:56;10.60;67.50
46926;DHT22;32667;48.248;-1.700;2023-04-24T06:05:22;10.60;67.50
46926;DHT22;32667;48.248;-1.700;2023-04-24T06:07:48;10.70;67.40
46926;DHT22;32667;48.248;-1.700;2023-04-24T06:10:14;10.60;67.50
46926;DHT22;32667;48.248;-1.700;2023-04-24T06:12:40;10.60;67.50
46926;DHT22;32667;48.248;-1.700;2023-04-24T06:15:07;10.60;67.60
46926;DHT22;32667;48.248;-1.700;2023-04-24T06:17:33;10.60;67.70
46926;DHT22;32667;48.248;-1.700;2023-04-24T06:19:59;10.60;67.70
46926;DHT22;32667;48.248;-1.700;2023-04-24T06:22:25;10.50;67.70
46926;DHT22;32667;48.248;-1.700;2023-04-24T06:24:50;10.50;67.70
46926;DHT22;32667;48.248;-1.700;2023-04-24T06:27:16;10.50;67.80
46926;DHT22;32667;48.248;-1.700;2023-04-24T06:29:42;10.50;67.70
46926;DHT22;32667;48.248;-1.700;2023-04-24T06:32:08;10.60;67.80
46926;DHT22;32667;48.248;-1.700;2023-04-24T06:34:33;10.50;67.70
46926;DHT22;32667;48.248;-1.700;2023-04-24T06:37:00;10.50;67.60
46926;DHT22;32667;48.248;-1.700;2023-04-24T06:39:26;10.60;67.70
46926;DHT22;32667;48.248;-1.700;2023-04-24T06:41:51;10.60;67.70
46926;DHT22;32667;48.248;-1.700;2023-04-24T06:44:17;10.60;67.60
46926;DHT22;32667;48.248;-1.700;2023-04-24T06:46:43;10.60;67.50
46926;DHT22;32667;48.248;-1.700;2023-04-24T06:49:09;10.70;67.50
46926;DHT22;32667;48.248;-1.700;2023-04-24T06:51:35;10.80;67.30
46926;DHT22;32667;48.248;-1.700;2023-04-24T06:54:00;11.00;67.00
46926;DHT22;32667;48.248;-1.700;2023-04-24T06:56:27;11.10;66.80
46926;DHT22;32667;48.248;-1.700;2023-04-24T06:58:54;11.20;66.70
46926;DHT22;32667;48.248;-1.700;2023-04-24T07:01:20;11.40;66.50
46926;DHT22;32667;48.248;-1.700;2023-04-24T07:03:46;11.70;66.20
46926;DHT22;32667;48.248;-1.700;2023-04-24T07:06:12;11.90;65.90
46926;DHT22;32667;48.248;-1.700;2023-04-24T07:08:40;12.10;65.60
46926;DHT22;32667;48.248;-1.700;2023-04-24T07:11:08;12.30;65.50
46926;DHT22;32667;48.248;-1.700;2023-04-24T07:13:34;12.40;65.30
46926;DHT22;32667;48.248;-1.700;2023-04-24T07:16:00;12.50;65.30
46926;DHT22;32667;48.248;-1.700;2023-04-24T07:18:26;12.60;65.20
46926;DHT22;32667;48.248;-1.700;2023-04-24T07:20:52;12.60;65.20
46926;DHT22;32667;48.248;-1.700;2023-04-24T07:23:18;12.70;65.30
46926;DHT22;32667;48.248;-1.700;2023-04-24T07:25:44;12.80;65.30
46926;DHT22;32667;48.248;-1.700;2023-04-24T07:28:10;12.90;65.20
46926;DHT22;32667;48.248;-1.700;2023-04-24T07:30:36;12.90;65.10
46926;DHT22;32667;48.248;-1.700;2023-04-24T07:33:01;13.00;65.20
46926;DHT22;32667;48.248;-1.700;2023-04-24T07:35:27;13.10;65.20
46926;DHT22;32667;48.248;-1.700;2023-04-24T07:37:53;13.20;64.90
46926;DHT22;32667;48.248;-1.700;2023-04-24T07:40:20;13.30;64.90
46926;DHT22;32667;48.248;-1.700;2023-04-24T07:42:46;13.30;64.90
46926;DHT22;32667;48.248;-1.700;2023-04-24T07:45:14;13.30;65.20
46926;DHT22;32667;48.248;-1.700;2023-04-24T07:47:41;13.40;65.00
46926;DHT22;32667;48.248;-1.700;2023-04-24T07:50:09;13.50;65.00
46926;DHT22;32667;48.248;-1.700;2023-04-24T07:52:35;13.50;65.00
46926;DHT22;32667;48.248;-1.700;2023-04-24T07:55:01;13.50;65.10
46926;DHT22;32667;48.248;-1.700;2023-04-24T07:57:30;13.50;65.20
46926;DHT22;32667;48.248;-1.700;2023-04-24T07:59:56;13.50;65.30
46926;DHT22;32667;48.248;-1.700;2023-04-24T08:02:22;13.40;65.40
46926;DHT22;32667;48.248;-1.700;2023-04-24T08:04:52;13.30;65.70
46926;DHT22;32667;48.248;-1.700;2023-04-24T08:07:19;13.30;65.80
46926;DHT22;32667;48.248;-1.700;2023-04-24T08:09:45;13.30;65.80
46926;DHT22;32667;48.248;-1.700;2023-04-24T08:12:14;13.30;65.80
46926;DHT22;32667;48.248;-1.700;2023-04-24T08:14:40;13.20;65.80
46926;DHT22;32667;48.248;-1.700;2023-04-24T08:17:06;13.20;66.00
46926;DHT22;32667;48.248;-1.700;2023-04-24T08:19:32;13.20;66.10
46926;DHT22;32667;48.248;-1.700;2023-04-24T08:21:57;13.20;66.00
46926;DHT22;32667;48.248;-1.700;2023-04-24T08:24:23;13.30;65.90
46926;DHT22;32667;48.248;-1.700;2023-04-24T08:26:49;13.30;65.80
46926;DHT22;32667;48.248;-1.700;2023-04-24T08:29:16;13.30;65.80
46926;DHT22;32667;48.248;-1.700;2023-04-24T08:31:42;13.40;65.80
46926;DHT22;32667;48.248;-1.700;2023-04-24T08:34:09;13.40;65.80
46926;DHT22;32667;48.248;-1.700;2023-04-24T08:36:36;13.40;65.70
46926;DHT22;32667;48.248;-1.700;2023-04-24T08:39:01;13.50;65.70
46926;DHT22;32667;48.248;-1.700;2023-04-24T08:41:27;13.60;65.60
46926;DHT22;32667;48.248;-1.700;2023-04-24T08:43:53;13.70;65.50
46926;DHT22;32667;48.248;-1.700;2023-04-24T08:46:20;13.80;65.30
46926;DHT22;32667;48.248;-1.700;2023-04-24T08:48:48;13.80;65.30
46926;DHT22;32667;48.248;-1.700;2023-04-24T08:51:17;13.80;65.40
46926;DHT22;32667;48.248;-1.700;2023-04-24T08:53:43;13.70;65.50
46926;DHT22;32667;48.248;-1.700;2023-04-24T08:56:11;13.80;65.50
46926;DHT22;32667;48.248;-1.700;2023-04-24T08:58:38;13.90;65.40
46926;DHT22;32667;48.248;-1.700;2023-04-24T09:01:04;14.00;65.20
46926;DHT22;32667;48.248;-1.700;2023-04-24T09:03:33;14.20;65.10
46926;DHT22;32667;48.248;-1.700;2023-04-24T09:06:00;14.20;65.00
46926;DHT22;32667;48.248;-1.700;2023-04-24T09:08:28;14.30;64.90
46926;DHT22;32667;48.248;-1.700;2023-04-24T09:10:54;14.20;64.90
46926;DHT22;32667;48.248;-1.700;2023-04-24T09:13:20;14.10;65.00
46926;DHT22;32667;48.248;-1.700;2023-04-24T09:15:46;14.00;65.30
46926;DHT22;32667;48.248;-1.700;2023-04-24T09:18:15;14.00;65.40
46926;DHT22;32667;48.248;-1.700;2023-04-24T09:21:03;14.00;65.60
46926;DHT22;32667;48.248;-1.700;2023-04-24T09:23:30;14.20;65.50
46926;DHT22;32667;48.248;-1.700;2023-04-24T09:25:58;14.30;65.20
46926;DHT22;32667;48.248;-1.700;2023-04-24T09:28:40;14.30;65.10
46926;DHT22;32667;48.248;-1.700;2023-04-24T09:31:08;14.30;65.10
46926;DHT22;32667;48.248;-1.700;2023-04-24T09:33:35;14.30;65.20
46926;DHT22;32667;48.248;-1.700;2023-04-24T09:36:01;14.40;65.20
46926;DHT22;32667;48.248;-1.700;2023-04-24T09:38:32;14.50;65.00
46926;DHT22;32667;48.248;-1.700;2023-04-24T09:41:00;14.60;64.80
46926;DHT22;32667;48.248;-1.700;2023-04-24T09:43:26;14.70;64.70
46926;DHT22;32667;48.248;-1.700;2023-04-24T09:45:56;14.70;64.80
46926;DHT22;32667;48.248;-1.700;2023-04-24T09:48:36;14.70;64.80
46926;DHT22;32667;48.248;-1.700;2023-04-24T09:51:03;14.60;64.80
46926;DHT22;32667;48.248;-1.700;2023-04-24T09:53:30;14.60;65.10
46926;DHT22;32667;48.248;-1.700;2023-04-24T09:56:03;14.50;65.10
46926;DHT22;32667;48.248;-1.700;2023-04-24T09:58:34;14.50;65.30
46926;DHT22;32667;48.248;-1.700;2023-04-24T10:01:01;14.50;65.30
46926;DHT22;32667;48.248;-1.700;2023-04-24T10:03:30;14.60;65.20
46926;DHT22;32667;48.248;-1.700;2023-04-24T10:05:59;14.70;65.00
46926;DHT22;32667;48.248;-1.700;2023-04-24T10:08:25;14.70;65.00
46926;DHT22;32667;48.248;-1.700;2023-04-24T10:10:52;14.70;65.00
46926;DHT22;32667;48.248;-1.700;2023-04-24T10:13:20;14.70;65.60
46926;DHT22;32667;48.248;-1.700;2023-04-24T10:15:46;14.80;64.90
46926;DHT22;32667;48.248;-1.700;2023-04-24T10:18:16;14.80;65.00
46926;DHT22;32667;48.248;-1.700;2023-04-24T10:20:42;14.90;64.90
46926;DHT22;32667;48.248;-1.700;2023-04-24T10:23:08;15.00;64.80
46926;DHT22;32667;48.248;-1.700;2023-04-24T10:25:36;15.00;64.80
46926;DHT22;32667;48.248;-1.700;2023-04-24T10:28:03;14.90;64.80
46926;DHT22;32667;48.248;-1.700;2023-04-24T10:30:35;15.00;64.90
46926;DHT22;32667;48.248;-1.700;2023-04-24T10:33:02;15.00;64.80
46926;DHT22;32667;48.248;-1.700;2023-04-24T10:35:31;15.00;64.80
46926;DHT22;32667;48.248;-1.700;2023-04-24T10:38:12;15.00;64.70
46926;DHT22;32667;48.248;-1.700;2023-04-24T10:40:39;15.00;64.90
46926;DHT22;32667;48.248;-1.700;2023-04-24T10:43:06;15.00;64.80
46926;DHT22;32667;48.248;-1.700;2023-04-24T10:45:33;15.00;64.90
46926;DHT22;32667;48.248;-1.700;2023-04-24T10:48:02;15.00;65.00
46926;DHT22;32667;48.248;-1.700;2023-04-24T10:50:52;15.00;65.00
46926;DHT22;32667;48.248;-1.700;2023-04-24T10:53:22;15.00;65.00
46926;DHT22;32667;48.248;-1.700;2023-04-24T10:56:09;15.10;64.90
46926;DHT22;32667;48.248;-1.700;2023-04-24T10:58:43;15.20;64.70
46926;DHT22;32667;48.248;-1.700;2023-04-24T11:01:30;15.30;64.40
46926;DHT22;32667;48.248;-1.700;2023-04-24T11:03:59;15.40;64.30
46926;DHT22;32667;48.248;-1.700;2023-04-24T11:06:35;15.30;64.40
46926;DHT22;32667;48.248;-1.700;2023-04-24T11:09:09;15.30;64.50
46926;DHT22;32667;48.248;-1.700;2023-04-24T11:11:36;15.30;64.60
46926;DHT22;32667;48.248;-1.700;2023-04-24T11:14:07;15.30;64.60
46926;DHT22;32667;48.248;-1.700;2023-04-24T11:16:52;15.40;64.60
46926;DHT22;32667;48.248;-1.700;2023-04-24T11:19:22;15.40;64.60
46926;DHT22;32667;48.248;-1.700;2023-04-24T11:21:58;15.40;64.50
46926;DHT22;32667;48.248;-1.700;2023-04-24T11:32:25;15.40;64.60
46926;DHT22;32667;48.248;-1.700;2023-04-24T11:35:00;15.40;64.70
46926;DHT22;32667;48.248;-1.700;2023-04-24T11:37:34;15.30;64.80
46926;DHT22;32667;48.248;-1.700;2023-04-24T11:40:01;15.20;65.00
46926;DHT22;32667;48.248;-1.700;2023-04-24T11:42:28;15.10;65.10
46926;DHT22;32667;48.248;-1.700;2023-04-24T11:44:54;15.10;65.30
46926;DHT22;32667;48.248;-1.700;2023-04-24T11:47:32;15.10;65.20
46926;DHT22;32667;48.248;-1.700;2023-04-24T11:50:00;15.10;65.10
46926;DHT22;32667;48.248;-1.700;2023-04-24T11:52:27;15.20;65.10
46926;DHT22;32667;48.248;-1.700;2023-04-24T11:54:53;15.20;64.90
46926;DHT22;32667;48.248;-1.700;2023-04-24T11:57:24;15.40;64.80
46926;DHT22;32667;48.248;-1.700;2023-04-24T11:59:51;15.50;64.50
46926;DHT22;32667;48.248;-1.700;2023-04-24T12:02:27;15.60;64.30
46926;DHT22;32667;48.248;-1.700;2023-04-24T12:04:53;15.70;64.10
46926;DHT22;32667;48.248;-1.700;2023-04-24T12:07:20;15.80;64.10
46926;DHT22;32667;48.248;-1.700;2023-04-24T12:09:49;15.90;64.60
46926;DHT22;32667;48.248;-1.700;2023-04-24T12:12:17;16.00;63.90
46926;DHT22;32667;48.248;-1.700;2023-04-24T12:14:52;16.10;63.70
46926;DHT22;32667;48.248;-1.700;2023-04-24T12:17:27;16.10;63.70
46926;DHT22;32667;48.248;-1.700;2023-04-24T12:19:58;16.10;63.70
46926;DHT22;32667;48.248;-1.700;2023-04-24T12:22:26;16.10;63.90
46926;DHT22;32667;48.248;-1.700;2023-04-24T12:25:02;16.10;63.90
46926;DHT22;32667;48.248;-1.700;2023-04-24T12:27:32;16.10;63.90
46926;DHT22;32667;48.248;-1.700;2023-04-24T12:30:02;16.20;63.90
46926;DHT22;32667;48.248;-1.700;2023-04-24T12:32:28;16.10;63.80
46926;DHT22;32667;48.248;-1.700;2023-04-24T12:34:57;16.10;64.10
46926;DHT22;32667;48.248;-1.700;2023-04-24T12:37:25;16.00;64.20
46926;DHT22;32667;48.248;-1.700;2023-04-24T12:40:10;15.90;64.40
46926;DHT22;32667;48.248;-1.700;2023-04-24T12:42:58;16.10;64.40
46926;DHT22;32667;48.248;-1.700;2023-04-24T12:45:26;16.30;63.90
46926;DHT22;32667;48.248;-1.700;2023-04-24T12:47:53;16.40;63.70
46926;DHT22;32667;48.248;-1.700;2023-04-24T12:50:19;16.40;63.60
46926;DHT22;32667;48.248;-1.700;2023-04-24T12:52:45;16.30;63.70
46926;DHT22;32667;48.248;-1.700;2023-04-24T12:55:11;16.30;63.80
46926;DHT22;32667;48.248;-1.700;2023-04-24T12:57:38;16.40;63.90
46926;DHT22;32667;48.248;-1.700;2023-04-24T13:00:06;16.50;63.80
46926;DHT22;32667;48.248;-1.700;2023-04-24T13:02:32;16.70;63.50
46926;DHT22;32667;48.248;-1.700;2023-04-24T13:05:01;16.90;63.30
46926;DHT22;32667;48.248;-1.700;2023-04-24T13:07:27;17.20;63.00
46926;DHT22;32667;48.248;-1.700;2023-04-24T13:09:54;17.40;62.60
46926;DHT22;32667;48.248;-1.700;2023-04-24T13:12:21;17.50;62.40
46926;DHT22;32667;48.248;-1.700;2023-04-24T13:14:49;17.60;62.30
46926;DHT22;32667;48.248;-1.700;2023-04-24T13:17:15;17.60;62.40
46926;DHT22;32667;48.248;-1.700;2023-04-24T13:19:42;17.50;62.50
46926;DHT22;32667;48.248;-1.700;2023-04-24T13:22:12;17.50;62.80
46926;DHT22;32667;48.248;-1.700;2023-04-24T13:24:39;17.70;62.80
46926;DHT22;32667;48.248;-1.700;2023-04-24T13:27:08;17.70;62.60
46926;DHT22;32667;48.248;-1.700;2023-04-24T13:29:35;17.60;62.70
46926;DHT22;32667;48.248;-1.700;2023-04-24T13:32:01;17.40;63.00
46926;DHT22;32667;48.248;-1.700;2023-04-24T13:34:27;17.30;63.40
46926;DHT22;32667;48.248;-1.700;2023-04-24T13:36:54;17.20;63.50
46926;DHT22;32667;48.248;-1.700;2023-04-24T13:39:23;17.20;63.60
46926;DHT22;32667;48.248;-1.700;2023-04-24T13:41:52;17.00;63.80
46926;DHT22;32667;48.248;-1.700;2023-04-24T13:44:21;16.90;64.00
46926;DHT22;32667;48.248;-1.700;2023-04-24T13:46:49;16.70;64.20
46926;DHT22;32667;48.248;-1.700;2023-04-24T13:49:15;16.60;64.40
46926;DHT22;32667;48.248;-1.700;2023-04-24T13:51:42;16.70;64.60
46926;DHT22;32667;48.248;-1.700;2023-04-24T13:54:08;16.90;64.30
46926;DHT22;32667;48.248;-1.700;2023-04-24T13:56:34;17.30;63.60
46926;DHT22;32667;48.248;-1.700;2023-04-24T13:59:00;17.70;62.90
46926;DHT22;32667;48.248;-1.700;2023-04-24T14:01:26;17.90;62.40
46926;DHT22;32667;48.248;-1.700;2023-04-24T14:03:53;18.10;62.20
46926;DHT22;32667;48.248;-1.700;2023-04-24T14:06:20;18.50;61.90
46926;DHT22;32667;48.248;-1.700;2023-04-24T14:08:49;18.80;61.40
46926;DHT22;32667;48.248;-1.700;2023-04-24T14:11:16;18.90;61.10
46926;DHT22;32667;48.248;-1.700;2023-04-24T14:13:43;18.90;61.30
46926;DHT22;32667;48.248;-1.700;2023-04-24T14:16:10;18.70;61.60
46926;DHT22;32667;48.248;-1.700;2023-04-24T14:18:36;18.50;62.10
46926;DHT22;32667;48.248;-1.700;2023-04-24T14:21:05;18.30;62.50
46926;DHT22;32667;48.248;-1.700;2023-04-24T14:23:38;18.10;62.90
46926;DHT22;32667;48.248;-1.700;2023-04-24T14:26:03;17.90;63.20
46926;DHT22;32667;48.248;-1.700;2023-04-24T14:28:29;17.50;63.60
46926;DHT22;32667;48.248;-1.700;2023-04-24T14:30:55;17.20;64.20
46926;DHT22;32667;48.248;-1.700;2023-04-24T14:33:21;16.80;64.80
46926;DHT22;32667;48.248;-1.700;2023-04-24T14:35:47;16.40;65.30
46926;DHT22;32667;48.248;-1.700;2023-04-24T14:38:13;16.00;65.80
46926;DHT22;32667;48.248;-1.700;2023-04-24T14:40:39;15.80;66.30
46926;DHT22;32667;48.248;-1.700;2023-04-24T14:43:05;15.70;66.40
46926;DHT22;32667;48.248;-1.700;2023-04-24T14:45:32;15.70;66.20
46926;DHT22;32667;48.248;-1.700;2023-04-24T14:47:58;15.80;66.10
46926;DHT22;32667;48.248;-1.700;2023-04-24T14:50:24;15.90;65.90
46926;DHT22;32667;48.248;-1.700;2023-04-24T14:52:54;16.10;65.60
46926;DHT22;32667;48.248;-1.700;2023-04-24T14:55:23;16.30;65.10
46926;DHT22;32667;48.248;-1.700;2023-04-24T14:57:49;16.60;64.50
46926;DHT22;32667;48.248;-1.700;2023-04-24T15:00:15;16.90;64.00
46926;DHT22;32667;48.248;-1.700;2023-04-24T15:02:42;17.10;63.70
46926;DHT22;32667;48.248;-1.700;2023-04-24T15:05:10;17.40;63.40
46926;DHT22;32667;48.248;-1.700;2023-04-24T15:07:37;17.60;63.00
46926;DHT22;32667;48.248;-1.700;2023-04-24T15:10:03;17.70;62.80
46926;DHT22;32667;48.248;-1.700;2023-04-24T15:12:32;17.60;62.90
46926;DHT22;32667;48.248;-1.700;2023-04-24T15:14:58;17.40;63.40
46926;DHT22;32667;48.248;-1.700;2023-04-24T15:17:24;17.30;63.80
46926;DHT22;32667;48.248;-1.700;2023-04-24T15:19:50;17.10;64.10
46926;DHT22;32667;48.248;-1.700;2023-04-24T15:22:16;17.00;64.40
46926;DHT22;32667;48.248;-1.700;2023-04-24T15:24:42;17.00;64.50